sensor_id;sensor_type;location;lat;lon;timestamp;temperature;humidity
55207;DHT22;41079;52.856;6.534;2022-09-03T00:04:50;16.60;69.40
55207;DHT22;41079;52.856;6.534;2022-09-03T00:07:29;16.50;69.60
55207;DHT22;41079;52.856;6.534;2022-09-03T00:10:01;16.50;69.90
55207;DHT22;41079;52.856;6.534;2022-09-03T00:12:28;16.40;69.90
55207;DHT22;41079;52.856;6.534;2022-09-03T00:15:08;16.30;70.30
55207;DHT22;41079;52.856;6.534;2022-09-03T00:17:39;16.20;70.40
55207;DHT22;41079;52.856;6.534;2022-09-03T00:23:46;16.20;70.70
55207;DHT22;41079;52.856;6.534;2022-09-03T00:28:44;16.20;70.80
55207;DHT22;41079;52.856;6.534;2022-09-03T00:31:13;16.20;71.00
55207;DHT22;41079;52.856;6.534;2022-09-03T00:33:43;16.00;71.30
55207;DHT22;41079;52.856;6.534;2022-09-03T00:36:15;15.90;71.80
55207;DHT22;41079;52.856;6.534;2022-09-03T00:38:42;15.90;72.20
55207;DHT22;41079;52.856;6.534;2022-09-03T00:44:11;15.70;72.90
55207;DHT22;41079;52.856;6.534;2022-09-03T00:46:48;15.70;73.20
55207;DHT22;41079;52.856;6.534;2022-09-03T00:49:53;15.70;72.70
55207;DHT22;41079;52.856;6.534;2022-09-03T00:58:36;15.60;73.70
55207;DHT22;41079;52.856;6.534;2022-09-03T01:01:19;15.50;73.80
55207;DHT22;41079;52.856;6.534;2022-09-03T01:07:07;15.50;74.40
55207;DHT22;41079;52.856;6.534;2022-09-03T01:09:46;15.40;74.60
55207;DHT22;41079;52.856;6.534;2022-09-03T01:18:06;15.30;75.50
55207;DHT22;41079;52.856;6.534;2022-09-03T01:20:57;15.30;75.50
55207;DHT22;41079;52.856;6.534;2022-09-03T01:26:15;15.20;76.00
55207;DHT22;41079;52.856;6.534;2022-09-03T01:29:07;15.30;75.70
55207;DHT22;41079;52.856;6.534;2022-09-03T01:34:52;15.30;75.90
55207;DHT22;41079;52.856;6.534;2022-09-03T01:37:37;15.30;76.00
55207;DHT22;41079;52.856;6.534;2022-09-03T01:46:15;15.40;75.70
55207;DHT22;41079;52.856;6.534;2022-09-03T01:48:54;15.40;75.80
55207;DHT22;41079;52.856;6.534;2022-09-03T02:02:17;15.30;76.60
55207;DHT22;41079;52.856;6.534;2022-09-03T02:05:02;15.30;76.70
55207;DHT22;41079;52.856;6.534;2022-09-03T02:10:10;15.40;76.30
55207;DHT22;41079;52.856;6.534;2022-09-03T02:12:37;15.40;76.60
55207;DHT22;41079;52.856;6.534;2022-09-03T02:15:07;15.40;76.80
55207;DHT22;41079;52.856;6.534;2022-09-03T02:17:35;15.30;77.00
55207;DHT22;41079;52.856;6.534;2022-09-03T02:20:06;15.40;76.90
55207;DHT22;41079;52.856;6.534;2022-09-03T02:22:33;15.40;77.10
55207;DHT22;41079;52.856;6.534;2022-09-03T02:24:59;15.40;76.80
55207;DHT22;41079;52.856;6.534;2022-09-03T02:27:25;15.50;76.70
55207;DHT22;41079;52.856;6.534;2022-09-03T02:29:51;15.50;76.20
55207;DHT22;41079;52.856;6.534;2022-09-03T02:32:17;15.60;76.40
55207;DHT22;41079;52.856;6.534;2022-09-03T02:34:42;15.60;76.50
55207;DHT22;41079;52.856;6.534;2022-09-03T02:37:13;15.60;76.30
55207;DHT22;41079;52.856;6.534;2022-09-03T02:39:39;15.70;76.00
55207;DHT22;41079;52.856;6.534;2022-09-03T02:42:05;15.80;75.40
55207;DHT22;41079;52.856;6.534;2022-09-03T02:44:34;15.90;76.00
55207;DHT22;41079;52.856;6.534;2022-09-03T02:47:04;15.90;74.80
55207;DHT22;41079;52.856;6.534;2022-09-03T02:49:31;16.00;74.90
55207;DHT22;41079;52.856;6.534;2022-09-03T02:51:58;16.00;74.50
55207;DHT22;41079;52.856;6.534;2022-09-03T02:54:30;16.00;74.50
55207;DHT22;41079;52.856;6.534;2022-09-03T02:56:58;16.00;74.80
55207;DHT22;41079;52.856;6.534;2022-09-03T02:59:24;16.00;74.60
55207;DHT22;41079;52.856;6.534;2022-09-03T03:01:53;16.00;74.50
55207;DHT22;41079;52.856;6.534;2022-09-03T03:04:18;16.00;74.40
55207;DHT22;41079;52.856;6.534;2022-09-03T03:06:44;16.00;74.50
55207;DHT22;41079;52.856;6.534;2022-09-03T03:09:09;16.00;74.60
55207;DHT22;41079;52.856;6.534;2022-09-03T03:11:35;16.00;74.70
55207;DHT22;41079;52.856;6.534;2022-09-03T03:14:01;16.00;74.50
55207;DHT22;41079;52.856;6.534;2022-09-03T03:16:27;16.00;74.50
55207;DHT22;41079;52.856;6.534;2022-09-03T03:18:55;16.00;74.70
55207;DHT22;41079;52.856;6.534;2022-09-03T03:21:21;16.00;75.10
55207;DHT22;41079;52.856;6.534;2022-09-03T03:23:47;15.90;75.00
55207;DHT22;41079;52.856;6.534;2022-09-03T03:26:14;15.90;75.10
55207;DHT22;41079;52.856;6.534;2022-09-03T03:28:46;15.90;75.50
55207;DHT22;41079;52.856;6.534;2022-09-03T03:31:15;16.00;75.00
55207;DHT22;41079;52.856;6.534;2022-09-03T03:33:42;15.90;75.50
55207;DHT22;41079;52.856;6.534;2022-09-03T03:36:13;15.80;75.50
55207;DHT22;41079;52.856;6.534;2022-09-03T03:38:40;15.80;75.70
55207;DHT22;41079;52.856;6.534;2022-09-03T03:41:10;15.80;75.80
55207;DHT22;41079;52.856;6.534;2022-09-03T03:43:36;15.80;75.90
55207;DHT22;41079;52.856;6.534;2022-09-03T03:46:02;15.80;76.20
55207;DHT22;41079;52.856;6.534;2022-09-03T03:48:28;15.70;76.20
55207;DHT22;41079;52.856;6.534;2022-09-03T03:50:53;15.70;77.20
55207;DHT22;41079;52.856;6.534;2022-09-03T03:53:19;15.60;76.70
55207;DHT22;41079;52.856;6.534;2022-09-03T03:55:59;15.60;76.60
55207;DHT22;41079;52.856;6.534;2022-09-03T03:58:26;15.60;76.80
55207;DHT22;41079;52.856;6.534;2022-09-03T04:00:52;15.60;77.70
55207;DHT22;41079;52.856;6.534;2022-09-03T04:03:18;15.60;77.50
55207;DHT22;41079;52.856;6.534;2022-09-03T04:05:56;15.50;77.40
55207;DHT22;41079;52.856;6.534;2022-09-03T04:08:24;15.50;77.20
55207;DHT22;41079;52.856;6.534;2022-09-03T04:10:49;15.40;77.40
55207;DHT22;41079;52.856;6.534;2022-09-03T04:13:15;15.40;77.50
55207;DHT22;41079;52.856;6.534;2022-09-03T04:15:41;15.40;77.60
55207;DHT22;41079;52.856;6.534;2022-09-03T04:18:07;15.40;77.80
55207;DHT22;41079;52.856;6.534;2022-09-03T04:20:35;15.40;77.90
55207;DHT22;41079;52.856;6.534;2022-09-03T04:23:00;15.30;78.00
55207;DHT22;41079;52.856;6.534;2022-09-03T04:25:26;15.30;78.50
55207;DHT22;41079;52.856;6.534;2022-09-03T04:27:52;15.20;78.60
55207;DHT22;41079;52.856;6.534;2022-09-03T04:30:17;15.10;79.10
55207;DHT22;41079;52.856;6.534;2022-09-03T04:32:43;15.10;79.30
55207;DHT22;41079;52.856;6.534;2022-09-03T04:35:19;15.00;79.70
55207;DHT22;41079;52.856;6.534;2022-09-03T04:37:45;14.90;80.20
55207;DHT22;41079;52.856;6.534;2022-09-03T04:40:11;14.80;80.50
55207;DHT22;41079;52.856;6.534;2022-09-03T04:42:36;14.90;80.90
55207;DHT22;41079;52.856;6.534;2022-09-03T04:45:02;14.80;81.40
55207;DHT22;41079;52.856;6.534;2022-09-03T04:47:28;14.70;81.60
55207;DHT22;41079;52.856;6.534;2022-09-03T04:49:54;14.70;82.30
55207;DHT22;41079;52.856;6.534;2022-09-03T04:52:20;14.70;82.20
55207;DHT22;41079;52.856;6.534;2022-09-03T04:54:45;14.60;82.60
55207;DHT22;41079;52.856;6.534;2022-09-03T04:57:11;14.60;83.00
55207;DHT22;41079;52.856;6.534;2022-09-03T04:59:37;14.60;83.50
55207;DHT22;41079;52.856;6.534;2022-09-03T05:02:03;14.60;83.60
55207;DHT22;41079;52.856;6.534;2022-09-03T05:04:28;14.60;83.90
55207;DHT22;41079;52.856;6.534;2022-09-03T05:06:54;14.50;84.20
55207;DHT22;41079;52.856;6.534;2022-09-03T05:09:19;14.50;84.80
55207;DHT22;41079;52.856;6.534;2022-09-03T05:11:45;14.40;85.20
55207;DHT22;41079;52.856;6.534;2022-09-03T05:14:11;14.50;85.50
55207;DHT22;41079;52.856;6.534;2022-09-03T05:16:37;14.40;85.90
55207;DHT22;41079;52.856;6.534;2022-09-03T05:19:03;14.40;86.40
55207;DHT22;41079;52.856;6.534;2022-09-03T05:21:30;14.50;86.50
55207;DHT22;41079;52.856;6.534;2022-09-03T05:23:58;14.50;86.80
55207;DHT22;41079;52.856;6.534;2022-09-03T05:26:26;14.50;86.60
55207;DHT22;41079;52.856;6.534;2022-09-03T05:28:56;14.50;87.00
55207;DHT22;41079;52.856;6.534;2022-09-03T05:31:24;14.50;87.20
55207;DHT22;41079;52.856;6.534;2022-09-03T05:33:55;14.50;87.50
55207;DHT22;41079;52.856;6.534;2022-09-03T05:36:27;14.60;87.50
55207;DHT22;41079;52.856;6.534;2022-09-03T05:38:53;14.60;87.60
55207;DHT22;41079;52.856;6.534;2022-09-03T05:41:19;14.60;87.80
55207;DHT22;41079;52.856;6.534;2022-09-03T05:43:52;14.60;88.10
55207;DHT22;41079;52.856;6.534;2022-09-03T05:46:24;14.60;88.10
55207;DHT22;41079;52.856;6.534;2022-09-03T05:48:59;14.60;88.50
55207;DHT22;41079;52.856;6.534;2022-09-03T05:51:26;14.70;88.70
55207;DHT22;41079;52.856;6.534;2022-09-03T05:53:52;14.70;88.10
55207;DHT22;41079;52.856;6.534;2022-09-03T05:56:21;14.80;88.60
55207;DHT22;41079;52.856;6.534;2022-09-03T05:58:50;14.70;89.00
55207;DHT22;41079;52.856;6.534;2022-09-03T06:01:24;14.70;89.20
55207;DHT22;41079;52.856;6.534;2022-09-03T06:04:08;14.80;89.20
55207;DHT22;41079;52.856;6.534;2022-09-03T06:06:37;14.90;89.20
55207;DHT22;41079;52.856;6.534;2022-09-03T06:09:05;15.00;89.00
55207;DHT22;41079;52.856;6.534;2022-09-03T06:11:32;15.00;89.20
55207;DHT22;41079;52.856;6.534;2022-09-03T06:14:00;15.10;88.60
55207;DHT22;41079;52.856;6.534;2022-09-03T06:16:26;15.20;88.30
55207;DHT22;41079;52.856;6.534;2022-09-03T06:18:52;15.30;88.40
55207;DHT22;41079;52.856;6.534;2022-09-03T06:21:18;15.30;88.20
55207;DHT22;41079;52.856;6.534;2022-09-03T06:23:48;15.40;88.00
55207;DHT22;41079;52.856;6.534;2022-09-03T06:26:16;15.40;87.80
55207;DHT22;41079;52.856;6.534;2022-09-03T06:28:43;15.50;87.50
55207;DHT22;41079;52.856;6.534;2022-09-03T06:31:13;15.60;87.40
55207;DHT22;41079;52.856;6.534;2022-09-03T06:33:40;15.60;88.10
55207;DHT22;41079;52.856;6.534;2022-09-03T06:36:09;15.80;87.40
55207;DHT22;41079;52.856;6.534;2022-09-03T06:38:36;16.00;86.90
55207;DHT22;41079;52.856;6.534;2022-09-03T06:41:12;16.10;85.60
55207;DHT22;41079;52.856;6.534;2022-09-03T06:43:40;16.20;86.00
55207;DHT22;41079;52.856;6.534;2022-09-03T06:46:14;16.20;85.70
55207;DHT22;41079;52.856;6.534;2022-09-03T06:48:40;16.00;86.50
55207;DHT22;41079;52.856;6.534;2022-09-03T06:51:08;16.10;87.40
55207;DHT22;41079;52.856;6.534;2022-09-03T06:53:37;16.30;87.40
55207;DHT22;41079;52.856;6.534;2022-09-03T06:56:08;16.50;86.00
55207;DHT22;41079;52.856;6.534;2022-09-03T06:58:34;16.70;84.20
55207;DHT22;41079;52.856;6.534;2022-09-03T07:01:17;16.80;84.30
55207;DHT22;41079;52.856;6.534;2022-09-03T07:03:44;16.90;84.80
55207;DHT22;41079;52.856;6.534;2022-09-03T07:06:16;17.10;83.80
55207;DHT22;41079;52.856;6.534;2022-09-03T07:08:42;17.20;82.30
55207;DHT22;41079;52.856;6.534;2022-09-03T07:11:11;17.30;80.80
55207;DHT22;41079;52.856;6.534;2022-09-03T07:13:42;17.30;81.40
55207;DHT22;41079;52.856;6.534;2022-09-03T07:16:15;17.30;82.80
55207;DHT22;41079;52.856;6.534;2022-09-03T07:18:41;17.50;81.80
55207;DHT22;41079;52.856;6.534;2022-09-03T07:21:12;17.60;80.30
55207;DHT22;41079;52.856;6.534;2022-09-03T07:23:38;17.60;79.90
55207;DHT22;41079;52.856;6.534;2022-09-03T07:26:07;17.70;79.20
55207;DHT22;41079;52.856;6.534;2022-09-03T07:28:36;17.80;81.40
55207;DHT22;41079;52.856;6.534;2022-09-03T07:31:11;17.80;79.90
55207;DHT22;41079;52.856;6.534;2022-09-03T07:33:38;18.00;79.10
55207;DHT22;41079;52.856;6.534;2022-09-03T07:36:09;18.10;79.40
55207;DHT22;41079;52.856;6.534;2022-09-03T07:38:36;18.30;78.40
55207;DHT22;41079;52.856;6.534;2022-09-03T07:41:04;18.40;76.30
55207;DHT22;41079;52.856;6.534;2022-09-03T07:43:36;18.40;76.70
55207;DHT22;41079;52.856;6.534;2022-09-03T07:46:07;18.50;77.40
55207;DHT22;41079;52.856;6.534;2022-09-03T07:48:34;18.60;76.40
55207;DHT22;41079;52.856;6.534;2022-09-03T07:51:00;18.60;76.30
55207;DHT22;41079;52.856;6.534;2022-09-03T07:53:27;18.80;75.90
55207;DHT22;41079;52.856;6.534;2022-09-03T07:55:53;19.00;76.20
55207;DHT22;41079;52.856;6.534;2022-09-03T07:58:21;19.00;75.10
55207;DHT22;41079;52.856;6.534;2022-09-03T08:00:48;19.10;74.80
55207;DHT22;41079;52.856;6.534;2022-09-03T08:03:13;19.20;74.20
55207;DHT22;41079;52.856;6.534;2022-09-03T08:05:39;19.30;73.40
55207;DHT22;41079;52.856;6.534;2022-09-03T08:08:05;19.30;74.70
55207;DHT22;41079;52.856;6.534;2022-09-03T08:10:34;19.50;72.70
55207;DHT22;41079;52.856;6.534;2022-09-03T08:13:01;19.50;72.20
55207;DHT22;41079;52.856;6.534;2022-09-03T08:15:30;19.60;72.30
55207;DHT22;41079;52.856;6.534;2022-09-03T08:17:56;19.60;73.20
55207;DHT22;41079;52.856;6.534;2022-09-03T08:20:23;19.70;71.70
55207;DHT22;41079;52.856;6.534;2022-09-03T08:22:49;19.80;72.30
55207;DHT22;41079;52.856;6.534;2022-09-03T08:25:15;19.90;71.10
55207;DHT22;41079;52.856;6.534;2022-09-03T08:27:42;19.90;70.40
55207;DHT22;41079;52.856;6.534;2022-09-03T08:30:08;20.00;71.90
55207;DHT22;41079;52.856;6.534;2022-09-03T08:32:39;20.20;72.10
55207;DHT22;41079;52.856;6.534;2022-09-03T08:35:06;20.40;70.80
55207;DHT22;41079;52.856;6.534;2022-09-03T08:37:31;20.50;69.30
55207;DHT22;41079;52.856;6.534;2022-09-03T08:39:58;20.50;68.10
55207;DHT22;41079;52.856;6.534;2022-09-03T08:42:40;20.50;69.60
55207;DHT22;41079;52.856;6.534;2022-09-03T08:45:14;20.50;68.30
55207;DHT22;41079;52.856;6.534;2022-09-03T08:47:47;20.60;68.50
55207;DHT22;41079;52.856;6.534;2022-09-03T08:50:39;20.60;67.90
55207;DHT22;41079;52.856;6.534;2022-09-03T08:53:14;20.80;67.40
55207;DHT22;41079;52.856;6.534;2022-09-03T08:56:02;20.90;67.70
55207;DHT22;41079;52.856;6.534;2022-09-03T08:58:31;21.00;67.80
55207;DHT22;41079;52.856;6.534;2022-09-03T09:01:03;21.20;68.70
55207;DHT22;41079;52.856;6.534;2022-09-03T09:09:11;21.90;65.60
55207;DHT22;41079;52.856;6.534;2022-09-03T09:11:55;21.90;64.20
55207;DHT22;41079;52.856;6.534;2022-09-03T09:20:29;21.90;65.40
55207;DHT22;41079;52.856;6.534;2022-09-03T09:23:02;22.10;64.70
55207;DHT22;41079;52.856;6.534;2022-09-03T09:25:28;22.20;64.30
55207;DHT22;41079;52.856;6.534;2022-09-03T09:30:24;22.50;62.70
55207;DHT22;41079;52.856;6.534;2022-09-03T09:32:50;22.50;62.20
55207;DHT22;41079;52.856;6.534;2022-09-03T09:35:17;22.50;62.30
55207;DHT22;41079;52.856;6.534;2022-09-03T09:37:54;22.50;62.00
55207;DHT22;41079;52.856;6.534;2022-09-03T09:40:33;22.50;61.90
55207;DHT22;41079;52.856;6.534;2022-09-03T09:43:16;22.50;62.00
55207;DHT22;41079;52.856;6.534;2022-09-03T09:45:47;22.70;61.50
55207;DHT22;41079;52.856;6.534;2022-09-03T09:48:20;22.80;61.00
55207;DHT22;41079;52.856;6.534;2022-09-03T09:50:46;22.80;61.20
55207;DHT22;41079;52.856;6.534;2022-09-03T09:53:12;22.90;60.20
55207;DHT22;41079;52.856;6.534;2022-09-03T09:55:53;23.00;60.10
55207;DHT22;41079;52.856;6.534;2022-09-03T09:58:21;23.00;58.60
55207;DHT22;41079;52.856;6.534;2022-09-03T10:01:09;23.00;60.10
55207;DHT22;41079;52.856;6.534;2022-09-03T10:03:40;23.20;61.20
55207;DHT22;41079;52.856;6.534;2022-09-03T10:06:13;23.50;60.10
55207;DHT22;41079;52.856;6.534;2022-09-03T10:09:12;23.50;58.70
55207;DHT22;41079;52.856;6.534;2022-09-03T10:11:42;23.50;58.50
55207;DHT22;41079;52.856;6.534;2022-09-03T10:14:16;23.70;58.10
55207;DHT22;41079;52.856;6.534;2022-09-03T10:16:47;23.80;57.00
55207;DHT22;41079;52.856;6.534;2022-09-03T10:19:22;23.70;57.60
55207;DHT22;41079;52.856;6.534;2022-09-03T10:22:04;23.80;56.60
55207;DHT22;41079;52.856;6.534;2022-09-03T10:24:47;23.90;58.30
55207;DHT22;41079;52.856;6.534;2022-09-03T10:27:16;24.10;56.20
55207;DHT22;41079;52.856;6.534;2022-09-03T10:29:43;24.30;55.70
55207;DHT22;41079;52.856;6.534;2022-09-03T10:35:19;24.60;54.50
55207;DHT22;41079;52.856;6.534;2022-09-03T10:38:16;24.80;52.00
55207;DHT22;41079;52.856;6.534;2022-09-03T10:46:35;25.30;52.60
55207;DHT22;41079;52.856;6.534;2022-09-03T10:49:19;25.40;50.90
55207;DHT22;41079;52.856;6.534;2022-09-03T10:52:08;25.20;51.70
55207;DHT22;41079;52.856;6.534;2022-09-03T10:54:54;25.20;52.00
55207;DHT22;41079;52.856;6.534;2022-09-03T11:00:07;25.30;50.60
55207;DHT22;41079;52.856;6.534;2022-09-03T11:05:21;25.40;50.70
55207;DHT22;41079;52.856;6.534;2022-09-03T11:10:49;25.40;50.10
55207;DHT22;41079;52.856;6.534;2022-09-03T11:13:26;25.60;49.00
55207;DHT22;41079;52.856;6.534;2022-09-03T11:15:58;25.40;48.80
55207;DHT22;41079;52.856;6.534;2022-09-03T11:21:19;25.30;48.50
55207;DHT22;41079;52.856;6.534;2022-09-03T11:24:02;25.30;48.90
55207;DHT22;41079;52.856;6.534;2022-09-03T11:26:30;25.40;48.20
55207;DHT22;41079;52.856;6.534;2022-09-03T11:29:58;25.40;48.40
55207;DHT22;41079;52.856;6.534;2022-09-03T11:32:16;25.40;48.30
55207;DHT22;41079;52.856;6.534;2022-09-03T11:34:53;25.60;48.30
55207;DHT22;41079;52.856;6.534;2022-09-03T11:37:24;25.60;47.20
55207;DHT22;41079;52.856;6.534;2022-09-03T11:40:03;25.50;47.40
55207;DHT22;41079;52.856;6.534;2022-09-03T11:42:33;25.40;48.20
55207;DHT22;41079;52.856;6.534;2022-09-03T11:47:44;25.60;46.50
55207;DHT22;41079;52.856;6.534;2022-09-03T11:50:28;25.60;46.40
55207;DHT22;41079;52.856;6.534;2022-09-03T11:53:24;25.80;46.60
55207;DHT22;41079;52.856;6.534;2022-09-03T11:56:25;25.70;47.10
55207;DHT22;41079;52.856;6.534;2022-09-03T11:58:44;25.80;46.20
55207;DHT22;41079;52.856;6.534;2022-09-03T12:01:13;25.90;47.10
55207;DHT22;41079;52.856;6.534;2022-09-03T12:03:44;26.20;46.50
55207;DHT22;41079;52.856;6.534;2022-09-03T12:06:56;26.20;45.70
55207;DHT22;41079;52.856;6.534;2022-09-03T12:14:52;26.00;45.40
55207;DHT22;41079;52.856;6.534;2022-09-03T12:19:55;26.30;45.10
55207;DHT22;41079;52.856;6.534;2022-09-03T12:22:25;26.40;44.40
55207;DHT22;41079;52.856;6.534;2022-09-03T12:24:53;26.40;44.20
55207;DHT22;41079;52.856;6.534;2022-09-03T12:27:21;26.60;45.00
55207;DHT22;41079;52.856;6.534;2022-09-03T12:29:57;26.40;43.90
55207;DHT22;41079;52.856;6.534;2022-09-03T12:32:31;26.20;44.20
55207;DHT22;41079;52.856;6.534;2022-09-03T12:35:22;26.20;45.30
55207;DHT22;41079;52.856;6.534;2022-09-03T12:37:55;26.30;45.20
55207;DHT22;41079;52.856;6.534;2022-09-03T12:40:29;26.50;43.70
55207;DHT22;41079;52.856;6.534;2022-09-03T12:43:14;26.50;43.60
55207;DHT22;41079;52.856;6.534;2022-09-03T12:45:47;26.40;44.30
55207;DHT22;41079;52.856;6.534;2022-09-03T12:48:23;26.40;44.00
55207;DHT22;41079;52.856;6.534;2022-09-03T12:51:02;26.40;43.50
55207;DHT22;41079;52.856;6.534;2022-09-03T12:53:38;26.30;42.90
55207;DHT22;41079;52.856;6.534;2022-09-03T12:56:04;26.20;44.00
55207;DHT22;41079;52.856;6.534;2022-09-03T12:58:38;26.20;43.20
55207;DHT22;41079;52.856;6.534;2022-09-03T13:01:17;26.30;42.80
55207;DHT22;41079;52.856;6.534;2022-09-03T13:04:16;26.30;43.30
55207;DHT22;41079;52.856;6.534;2022-09-03T13:09:22;26.40;43.90
55207;DHT22;41079;52.856;6.534;2022-09-03T13:11:49;26.50;43.70
55207;DHT22;41079;52.856;6.534;2022-09-03T13:14:17;26.70;43.20
55207;DHT22;41079;52.856;6.534;2022-09-03T13:19:29;26.90;43.20
55207;DHT22;41079;52.856;6.534;2022-09-03T13:28:14;26.70;42.70
55207;DHT22;41079;52.856;6.534;2022-09-03T13:33:39;26.70;43.20
55207;DHT22;41079;52.856;6.534;2022-09-03T13:36:37;26.70;43.10
55207;DHT22;41079;52.856;6.534;2022-09-03T13:39:34;26.80;43.30
55207;DHT22;41079;52.856;6.534;2022-09-03T13:44:45;27.10;42.40
55207;DHT22;41079;52.856;6.534;2022-09-03T13:47:43;27.00;42.00
55207;DHT22;41079;52.856;6.534;2022-09-03T13:50:41;26.80;43.30
55207;DHT22;41079;52.856;6.534;2022-09-03T13:55:54;26.60;42.70
55207;DHT22;41079;52.856;6.534;2022-09-03T13:58:31;26.60;43.40
55207;DHT22;41079;52.856;6.534;2022-09-03T14:01:25;26.60;43.60
55207;DHT22;41079;52.856;6.534;2022-09-03T14:03:57;26.80;42.30
55207;DHT22;41079;52.856;6.534;2022-09-03T14:06:40;26.90;43.00
55207;DHT22;41079;52.856;6.534;2022-09-03T14:09:14;27.00;43.30
55207;DHT22;41079;52.856;6.534;2022-09-03T14:12:09;26.90;42.70
55207;DHT22;41079;52.856;6.534;2022-09-03T14:14:52;26.80;43.30
55207;DHT22;41079;52.856;6.534;2022-09-03T14:17:31;26.70;42.90
55207;DHT22;41079;52.856;6.534;2022-09-03T14:20:24;26.70;44.40
55207;DHT22;41079;52.856;6.534;2022-09-03T14:22:58;27.00;43.00
55207;DHT22;41079;52.856;6.534;2022-09-03T14:25:27;27.10;42.00
55207;DHT22;41079;52.856;6.534;2022-09-03T14:27:55;27.00;42.20
55207;DHT22;41079;52.856;6.534;2022-09-03T14:30:50;27.10;42.40
55207;DHT22;41079;52.856;6.534;2022-09-03T14:33:43;27.20;42.10
55207;DHT22;41079;52.856;6.534;2022-09-03T14:36:26;27.20;42.60
55207;DHT22;41079;52.856;6.534;2022-09-03T14:41:43;27.10;42.50
55207;DHT22;41079;52.856;6.534;2022-09-03T14:44:26;27.20;42.70
55207;DHT22;41079;52.856;6.534;2022-09-03T14:47:08;27.40;42.80
55207;DHT22;41079;52.856;6.534;2022-09-03T14:52:47;27.20;42.20
55207;DHT22;41079;52.856;6.534;2022-09-03T14:58:16;26.60;43.60
55207;DHT22;41079;52.856;6.534;2022-09-03T15:09:26;26.30;43.90
55207;DHT22;41079;52.856;6.534;2022-09-03T15:12:04;26.60;43.60
55207;DHT22;41079;52.856;6.534;2022-09-03T15:14:53;26.70;43.80
55207;DHT22;41079;52.856;6.534;2022-09-03T15:20:29;26.60;43.90
55207;DHT22;41079;52.856;6.534;2022-09-03T15:26:29;26.60;44.20
55207;DHT22;41079;52.856;6.534;2022-09-03T15:35:06;26.70;43.80
55207;DHT22;41079;52.856;6.534;2022-09-03T15:37:37;26.30;44.00
55207;DHT22;41079;52.856;6.534;2022-09-03T15:40:16;26.20;45.50
55207;DHT22;41079;52.856;6.534;2022-09-03T15:42:47;26.30;46.30
55207;DHT22;41079;52.856;6.534;2022-09-03T15:48:25;26.50;45.60
55207;DHT22;41079;52.856;6.534;2022-09-03T15:51:17;26.60;45.10
55207;DHT22;41079;52.856;6.534;2022-09-03T15:53:51;26.60;44.40
55207;DHT22;41079;52.856;6.534;2022-09-03T16:01:44;25.90;45.10
55207;DHT22;41079;52.856;6.534;2022-09-03T16:07:02;26.00;45.50
55207;DHT22;41079;52.856;6.534;2022-09-03T16:09:46;26.10;45.70
55207;DHT22;41079;52.856;6.534;2022-09-03T16:12:35;26.20;44.50
55207;DHT22;41079;52.856;6.534;2022-09-03T16:15:13;26.10;44.80
55207;DHT22;41079;52.856;6.534;2022-09-03T16:18:07;25.90;45.60
55207;DHT22;41079;52.856;6.534;2022-09-03T16:20:42;25.80;46.30
55207;DHT22;41079;52.856;6.534;2022-09-03T16:23:16;25.80;46.90
55207;DHT22;41079;52.856;6.534;2022-09-03T16:25:54;25.90;46.00
55207;DHT22;41079;52.856;6.534;2022-09-03T16:28:28;26.00;46.50
55207;DHT22;41079;52.856;6.534;2022-09-03T16:42:11;25.70;46.20
55207;DHT22;41079;52.856;6.534;2022-09-03T16:53:13;25.50;47.00
55207;DHT22;41079;52.856;6.534;2022-09-03T17:07:18;25.10;48.30
55207;DHT22;41079;52.856;6.534;2022-09-03T17:10:13;25.00;48.50
55207;DHT22;41079;52.856;6.534;2022-09-03T17:16:07;24.70;49.30
55207;DHT22;41079;52.856;6.534;2022-09-03T17:18:37;24.60;49.50
55207;DHT22;41079;52.856;6.534;2022-09-03T17:21:19;24.50;50.00
55207;DHT22;41079;52.856;6.534;2022-09-03T17:29:53;24.00;52.20
55207;DHT22;41079;52.856;6.534;2022-09-03T17:32:45;23.80;52.40
55207;DHT22;41079;52.856;6.534;2022-09-03T17:43:27;23.10;54.70
55207;DHT22;41079;52.856;6.534;2022-09-03T17:48:53;22.80;55.20
55207;DHT22;41079;52.856;6.534;2022-09-03T17:51:42;22.70;55.10
55207;DHT22;41079;52.856;6.534;2022-09-03T18:00:00;22.40;55.70
55207;DHT22;41079;52.856;6.534;2022-09-03T18:02:33;22.30;55.80
55207;DHT22;41079;52.856;6.534;2022-09-03T18:05:15;22.20;56.00
55207;DHT22;41079;52.856;6.534;2022-09-03T18:08:06;22.10;56.10
55207;DHT22;41079;52.856;6.534;2022-09-03T18:10:50;22.00;56.40
55207;DHT22;41079;52.856;6.534;2022-09-03T18:16:26;21.70;56.90
55207;DHT22;41079;52.856;6.534;2022-09-03T18:18:58;21.70;57.30
55207;DHT22;41079;52.856;6.534;2022-09-03T18:21:27;21.60;57.60
55207;DHT22;41079;52.856;6.534;2022-09-03T18:24:28;21.50;57.40
55207;DHT22;41079;52.856;6.534;2022-09-03T18:27:33;21.30;57.90
55207;DHT22;41079;52.856;6.534;2022-09-03T18:30:24;21.10;58.50
55207;DHT22;41079;52.856;6.534;2022-09-03T18:33:09;21.00;59.30
55207;DHT22;41079;52.856;6.534;2022-09-03T18:35:54;20.90;59.60
55207;DHT22;41079;52.856;6.534;2022-09-03T18:38:39;20.80;59.60
55207;DHT22;41079;52.856;6.534;2022-09-03T18:41:59;20.70;59.80
55207;DHT22;41079;52.856;6.534;2022-09-03T18:45:12;20.60;60.00
55207;DHT22;41079;52.856;6.534;2022-09-03T18:48:18;20.50;60.30
55207;DHT22;41079;52.856;6.534;2022-09-03T18:51:27;20.40;60.50
55207;DHT22;41079;52.856;6.534;2022-09-03T18:54:40;20.30;61.40
55207;DHT22;41079;52.856;6.534;2022-09-03T19:07:58;19.30;64.70
55207;DHT22;41079;52.856;6.534;2022-09-03T19:10:53;19.20;63.60
55207;DHT22;41079;52.856;6.534;2022-09-03T19:13:39;19.30;64.00
55207;DHT22;41079;52.856;6.534;2022-09-03T19:16:55;19.40;64.10
55207;DHT22;41079;52.856;6.534;2022-09-03T19:20:13;19.50;63.60
55207;DHT22;41079;52.856;6.534;2022-09-03T19:23:02;19.60;64.30
55207;DHT22;41079;52.856;6.534;2022-09-03T19:25:46;19.80;63.40
55207;DHT22;41079;52.856;6.534;2022-09-03T19:28:35;19.80;63.20
55207;DHT22;41079;52.856;6.534;2022-09-03T19:31:46;19.80;63.10
55207;DHT22;41079;52.856;6.534;2022-09-03T19:37:40;19.80;63.30
55207;DHT22;41079;52.856;6.534;2022-09-03T19:46:39;19.50;64.50
55207;DHT22;41079;52.856;6.534;2022-09-03T19:49:54;19.20;64.60
55207;DHT22;41079;52.856;6.534;2022-09-03T19:52:57;19.10;65.20
55207;DHT22;41079;52.856;6.534;2022-09-03T19:55:48;18.90;65.80
55207;DHT22;41079;52.856;6.534;2022-09-03T19:58:39;18.90;66.10
55207;DHT22;41079;52.856;6.534;2022-09-03T20:01:32;18.80;65.90
55207;DHT22;41079;52.856;6.534;2022-09-03T20:04:16;18.90;66.10
55207;DHT22;41079;52.856;6.534;2022-09-03T20:07:05;18.90;65.90
55207;DHT22;41079;52.856;6.534;2022-09-03T20:09:52;18.90;65.90
55207;DHT22;41079;52.856;6.534;2022-09-03T20:12:45;18.90;65.70
55207;DHT22;41079;52.856;6.534;2022-09-03T20:15:12;18.90;65.80
55207;DHT22;41079;52.856;6.534;2022-09-03T20:20:23;18.80;65.90